sensor_id;sensor_type;location;lat;lon;timestamp;pressure;altitude;pressure_sealevel;temperature;humidity
14790;BME280;7486;51.010;10.366;2023-03-19T00:01:50;97971.47;;;8.22;67.02
14790;BME280;7486;51.010;10.366;2023-03-19T00:04:36;97957.47;;;8.15;66.98
14790;BME280;7486;51.010;10.366;2023-03-19T00:07:21;97971.44;;;8.15;67.42
14790;BME280;7486;51.010;10.366;2023-03-19T00:10:07;97981.78;;;8.10;66.85
14790;BME280;7486;51.010;10.366;2023-03-19T00:12:52;97984.34;;;7.97;67.75
14790;BME280;7486;51.010;10.366;2023-03-19T00:15:38;97979.88;;;7.98;67.58
14790;BME280;7486;51.010;10.366;2023-03-19T00:18:23;97986.16;;;7.97;67.46
14790;BME280;7486;51.010;10.366;2023-03-19T00:21:08;97986.34;;;7.95;67.27
14790;BME280;7486;51.010;10.366;2023-03-19T00:23:54;97990.22;;;7.99;67.37
14790;BME280;7486;51.010;10.366;2023-03-19T00:26:39;97989.81;;;8.02;67.40
14790;BME280;7486;51.010;10.366;2023-03-19T00:29:24;97982.16;;;8.07;67.22
14790;BME280;7486;51.010;10.366;2023-03-19T00:32:10;97977.69;;;8.08;66.65
14790;BME280;7486;51.010;10.366;2023-03-19T00:34:55;97976.03;;;8.00;67.54
14790;BME280;7486;51.010;10.366;2023-03-19T00:37:41;97958.94;;;7.90;67.82
14790;BME280;7486;51.010;10.366;2023-03-19T00:40:26;97978.25;;;7.97;67.48
14790;BME280;7486;51.010;10.366;2023-03-19T00:43:11;97987.31;;;7.88;67.90
14790;BME280;7486;51.010;10.366;2023-03-19T00:45:57;97979.19;;;7.83;68.20
14790;BME280;7486;51.010;10.366;2023-03-19T00:48:42;97980.81;;;7.84;67.90
14790;BME280;7486;51.010;10.366;2023-03-19T00:51:28;97978.19;;;7.84;67.42
14790;BME280;7486;51.010;10.366;2023-03-19T00:54:13;97988.72;;;7.84;67.71
14790;BME280;7486;51.010;10.366;2023-03-19T00:56:59;97968.59;;;7.76;67.45
14790;BME280;7486;51.010;10.366;2023-03-19T00:59:44;97973.06;;;7.76;67.96
14790;BME280;7486;51.010;10.366;2023-03-19T01:02:30;97982.00;;;7.81;67.92
14790;BME280;7486;51.010;10.366;2023-03-19T01:05:15;97965.91;;;7.69;67.89
14790;BME280;7486;51.010;10.366;2023-03-19T01:08:01;97980.81;;;7.84;67.77
14790;BME280;7486;51.010;10.366;2023-03-19T01:10:47;97962.91;;;7.73;67.74
14790;BME280;7486;51.010;10.366;2023-03-19T01:13:33;97985.31;;;7.90;67.88
14790;BME280;7486;51.010;10.366;2023-03-19T01:16:18;97990.38;;;7.91;67.96
14790;BME280;7486;51.010;10.366;2023-03-19T01:19:03;97990.19;;;7.93;67.69
14790;BME280;7486;51.010;10.366;2023-03-19T01:21:49;97989.19;;;7.94;68.14
14790;BME280;7486;51.010;10.366;2023-03-19T01:24:38;97996.28;;;7.93;67.98
14790;BME280;7486;51.010;10.366;2023-03-19T01:27:23;97994.06;;;7.97;67.85
14790;BME280;7486;51.010;10.366;2023-03-19T01:30:10;97989.75;;;7.89;68.85
14790;BME280;7486;51.010;10.366;2023-03-19T01:33:14;97983.94;;;7.66;69.63
14790;BME280;7486;51.010;10.366;2023-03-19T01:36:35;97984.25;;;7.50;70.39
14790;BME280;7486;51.010;10.366;2023-03-19T01:39:23;97973.50;;;7.51;70.25
14790;BME280;7486;51.010;10.366;2023-03-19T01:42:08;97971.81;;;7.44;70.40
14790;BME280;7486;51.010;10.366;2023-03-19T01:45:02;97990.59;;;7.34;71.52
14790;BME280;7486;51.010;10.366;2023-03-19T01:51:22;97973.50;;;7.51;71.41
14790;BME280;7486;51.010;10.366;2023-03-19T01:54:34;97968.91;;;7.60;70.48
14790;BME280;7486;51.010;10.366;2023-03-19T01:57:46;97972.59;;;7.65;69.89
14790;BME280;7486;51.010;10.366;2023-03-19T02:00:49;97965.28;;;7.67;69.46
14790;BME280;7486;51.010;10.366;2023-03-19T02:03:36;97967.13;;;7.67;69.09
14790;BME280;7486;51.010;10.366;2023-03-19T02:06:49;97974.59;;;7.63;68.91
14790;BME280;7486;51.010;10.366;2023-03-19T02:09:35;97982.25;;;7.58;68.82
14790;BME280;7486;51.010;10.366;2023-03-19T02:12:21;97974.75;;;7.55;69.06
14790;BME280;7486;51.010;10.366;2023-03-19T02:15:07;97972.50;;;7.52;68.88
14790;BME280;7486;51.010;10.366;2023-03-19T02:17:52;97967.63;;;7.49;69.31
14790;BME280;7486;51.010;10.366;2023-03-19T02:20:48;97963.94;;;7.50;68.85
14790;BME280;7486;51.010;10.366;2023-03-19T02:26:28;97975.22;;;7.38;67.16
14790;BME280;7486;51.010;10.366;2023-03-19T02:29:19;97977.56;;;7.26;67.67
14790;BME280;7486;51.010;10.366;2023-03-19T02:32:05;97980.13;;;7.19;67.89
14790;BME280;7486;51.010;10.366;2023-03-19T02:34:52;97984.19;;;7.15;68.06
14790;BME280;7486;51.010;10.366;2023-03-19T02:37:38;97986.72;;;7.09;68.46
14790;BME280;7486;51.010;10.366;2023-03-19T02:40:25;97991.22;;;7.08;68.26
14790;BME280;7486;51.010;10.366;2023-03-19T02:43:13;97990.38;;;7.08;68.22
14790;BME280;7486;51.010;10.366;2023-03-19T02:46:00;97979.03;;;7.07;68.11
14790;BME280;7486;51.010;10.366;2023-03-19T02:48:46;97982.50;;;7.08;67.62
14790;BME280;7486;51.010;10.366;2023-03-19T02:51:31;97987.09;;;7.06;67.28
14790;BME280;7486;51.010;10.366;2023-03-19T02:54:16;97976.97;;;7.03;66.71
14790;BME280;7486;51.010;10.366;2023-03-19T02:57:01;97987.44;;;6.96;66.93
14790;BME280;7486;51.010;10.366;2023-03-19T02:59:47;97987.88;;;6.79;67.26
14790;BME280;7486;51.010;10.366;2023-03-19T03:02:32;97982.56;;;6.57;69.60
14790;BME280;7486;51.010;10.366;2023-03-19T03:05:17;97957.44;;;6.55;69.47
14790;BME280;7486;51.010;10.366;2023-03-19T03:08:04;97981.81;;;6.63;68.72
14790;BME280;7486;51.010;10.366;2023-03-19T03:10:49;97984.44;;;6.63;68.13
14790;BME280;7486;51.010;10.366;2023-03-19T03:13:34;97989.88;;;6.62;68.24
14790;BME280;7486;51.010;10.366;2023-03-19T03:16:20;97989.16;;;6.32;68.33
14790;BME280;7486;51.010;10.366;2023-03-19T03:19:06;98000.34;;;6.19;69.66
14790;BME280;7486;51.010;10.366;2023-03-19T03:21:52;97996.72;;;6.06;69.83
14790;BME280;7486;51.010;10.366;2023-03-19T03:24:38;97985.66;;;6.10;70.33
14790;BME280;7486;51.010;10.366;2023-03-19T03:27:23;97994.97;;;6.13;70.47
14790;BME280;7486;51.010;10.366;2023-03-19T03:30:10;97990.28;;;6.23;70.10
14790;BME280;7486;51.010;10.366;2023-03-19T03:32:56;98004.66;;;6.27;69.89
14790;BME280;7486;51.010;10.366;2023-03-19T03:35:42;97946.50;;;5.86;70.31
14790;BME280;7486;51.010;10.366;2023-03-19T03:38:27;98004.66;;;6.27;69.70
14790;BME280;7486;51.010;10.366;2023-03-19T03:41:14;97974.38;;;6.16;70.36
14790;BME280;7486;51.010;10.366;2023-03-19T03:43:59;97997.59;;;6.28;70.04
14790;BME280;7486;51.010;10.366;2023-03-19T03:46:45;98000.59;;;6.10;69.50
14790;BME280;7486;51.010;10.366;2023-03-19T03:49:30;98000.34;;;6.05;70.25
14790;BME280;7486;51.010;10.366;2023-03-19T03:52:15;97991.19;;;6.01;70.55
14790;BME280;7486;51.010;10.366;2023-03-19T03:55:01;97993.34;;;6.12;70.57
14790;BME280;7486;51.010;10.366;2023-03-19T03:57:47;97995.41;;;6.16;70.61
14790;BME280;7486;51.010;10.366;2023-03-19T04:00:32;98005.78;;;6.18;70.46
14790;BME280;7486;51.010;10.366;2023-03-19T04:03:18;97995.78;;;6.13;70.51
14790;BME280;7486;51.010;10.366;2023-03-19T04:06:04;97994.72;;;6.23;70.42
14790;BME280;7486;51.010;10.366;2023-03-19T04:08:49;97997.13;;;6.24;70.13
14790;BME280;7486;51.010;10.366;2023-03-19T04:11:35;97999.16;;;6.22;70.47
14790;BME280;7486;51.010;10.366;2023-03-19T04:14:21;98002.41;;;6.24;70.30
14790;BME280;7486;51.010;10.366;2023-03-19T04:17:06;97998.78;;;6.25;69.93
14790;BME280;7486;51.010;10.366;2023-03-19T04:19:52;98016.56;;;6.23;70.32
14790;BME280;7486;51.010;10.366;2023-03-19T04:22:38;98008.78;;;6.15;70.50
14790;BME280;7486;51.010;10.366;2023-03-19T04:25:23;98010.03;;;6.19;70.58
14790;BME280;7486;51.010;10.366;2023-03-19T04:28:09;98005.59;;;6.05;70.39
14790;BME280;7486;51.010;10.366;2023-03-19T04:31:02;98010.50;;;5.93;71.53
14790;BME280;7486;51.010;10.366;2023-03-19T04:33:50;97995.81;;;5.84;71.68
14790;BME280;7486;51.010;10.366;2023-03-19T04:36:37;98024.75;;;5.99;70.92
14790;BME280;7486;51.010;10.366;2023-03-19T04:39:22;98014.59;;;5.96;70.62
14790;BME280;7486;51.010;10.366;2023-03-19T04:42:09;98014.59;;;5.96;70.72
14790;BME280;7486;51.010;10.366;2023-03-19T04:45:03;98019.03;;;5.95;70.55
14790;BME280;7486;51.010;10.366;2023-03-19T04:47:48;98050.56;;;5.95;70.70
14790;BME280;7486;51.010;10.366;2023-03-19T04:50:34;98022.97;;;5.62;70.92
14790;BME280;7486;51.010;10.366;2023-03-19T04:53:20;98023.44;;;5.65;71.25
14790;BME280;7486;51.010;10.366;2023-03-19T04:56:06;98024.34;;;5.73;71.71
14790;BME280;7486;51.010;10.366;2023-03-19T04:58:52;98014.59;;;5.81;71.69
14790;BME280;7486;51.010;10.366;2023-03-19T05:01:37;97953.56;;;5.42;71.39
14790;BME280;7486;51.010;10.366;2023-03-19T05:04:25;98024.06;;;5.82;72.01
14790;BME280;7486;51.010;10.366;2023-03-19T05:07:16;98012.41;;;5.85;71.55
14790;BME280;7486;51.010;10.366;2023-03-19T05:10:02;97995.63;;;5.71;71.16
14790;BME280;7486;51.010;10.366;2023-03-19T05:12:48;97954.03;;;5.45;70.90
14790;BME280;7486;51.010;10.366;2023-03-19T05:15:34;98027.34;;;5.84;70.93
14790;BME280;7486;51.010;10.366;2023-03-19T05:18:23;98033.81;;;5.82;71.55
14790;BME280;7486;51.010;10.366;2023-03-19T05:21:11;98028.81;;;5.87;71.30
14790;BME280;7486;51.010;10.366;2023-03-19T05:23:57;98026.38;;;5.85;71.76
14790;BME280;7486;51.010;10.366;2023-03-19T05:26:43;98029.78;;;5.86;71.65
14790;BME280;7486;51.010;10.366;2023-03-19T05:29:47;98025.91;;;5.82;72.13
14790;BME280;7486;51.010;10.366;2023-03-19T05:32:57;97969.69;;;5.39;72.55
14790;BME280;7486;51.010;10.366;2023-03-19T05:36:02;98045.81;;;5.61;72.88
14790;BME280;7486;51.010;10.366;2023-03-19T05:39:03;98061.44;;;5.40;74.21
14790;BME280;7486;51.010;10.366;2023-03-19T05:41:52;98056.19;;;5.55;74.72
14790;BME280;7486;51.010;10.366;2023-03-19T05:44:43;98047.72;;;5.67;74.89
14790;BME280;7486;51.010;10.366;2023-03-19T05:47:54;98049.81;;;5.72;73.79
14790;BME280;7486;51.010;10.366;2023-03-19T05:50:40;97981.44;;;5.28;74.80
14790;BME280;7486;51.010;10.366;2023-03-19T05:53:37;97955.53;;;5.25;74.20
14790;BME280;7486;51.010;10.366;2023-03-19T05:56:45;97984.81;;;5.51;73.70
14790;BME280;7486;51.010;10.366;2023-03-19T05:59:51;98054.56;;;5.91;73.45
14790;BME280;7486;51.010;10.366;2023-03-19T06:02:56;98054.19;;;5.94;73.46
14790;BME280;7486;51.010;10.366;2023-03-19T06:06:00;97980.03;;;5.40;72.88
14790;BME280;7486;51.010;10.366;2023-03-19T06:08:53;98057.16;;;5.77;73.05
14790;BME280;7486;51.010;10.366;2023-03-19T06:11:42;98064.59;;;5.73;73.55
14790;BME280;7486;51.010;10.366;2023-03-19T06:14:46;98066.38;;;5.73;73.89
14790;BME280;7486;51.010;10.366;2023-03-19T06:17:52;98071.13;;;5.77;73.89
14790;BME280;7486;51.010;10.366;2023-03-19T06:20:38;98064.78;;;5.72;73.54
14790;BME280;7486;51.010;10.366;2023-03-19T06:23:23;98068.50;;;5.77;73.81
14790;BME280;7486;51.010;10.366;2023-03-19T06:26:08;98040.63;;;5.53;73.82
14790;BME280;7486;51.010;10.366;2023-03-19T06:29:05;98072.56;;;5.65;73.71
14790;BME280;7486;51.010;10.366;2023-03-19T06:31:51;98073.59;;;5.56;73.69
14790;BME280;7486;51.010;10.366;2023-03-19T06:34:54;98074.69;;;5.47;74.71
14790;BME280;7486;51.010;10.366;2023-03-19T06:37:40;98069.53;;;5.53;75.25
14790;BME280;7486;51.010;10.366;2023-03-19T06:40:25;98088.13;;;5.66;75.24
14790;BME280;7486;51.010;10.366;2023-03-19T06:43:10;98088.84;;;5.60;75.45
14790;BME280;7486;51.010;10.366;2023-03-19T06:45:56;98089.78;;;5.67;76.01
14790;BME280;7486;51.010;10.366;2023-03-19T06:48:41;98077.97;;;5.63;75.98
14790;BME280;7486;51.010;10.366;2023-03-19T06:51:26;98095.50;;;5.86;75.89
14790;BME280;7486;51.010;10.366;2023-03-19T06:54:13;98097.06;;;5.95;76.11
14790;BME280;7486;51.010;10.366;2023-03-19T06:56:58;98087.19;;;5.97;76.39
14790;BME280;7486;51.010;10.366;2023-03-19T06:59:44;98070.97;;;6.08;76.64
14790;BME280;7486;51.010;10.366;2023-03-19T07:02:29;98102.97;;;6.41;75.91
14790;BME280;7486;51.010;10.366;2023-03-19T07:05:14;98107.59;;;6.53;75.59
14790;BME280;7486;51.010;10.366;2023-03-19T07:07:59;98097.34;;;6.58;75.36
14790;BME280;7486;51.010;10.366;2023-03-19T07:10:45;98093.16;;;6.64;74.95
14790;BME280;7486;51.010;10.366;2023-03-19T07:13:32;98038.94;;;6.34;74.87
14790;BME280;7486;51.010;10.366;2023-03-19T07:16:18;98114.34;;;7.06;75.16
14790;BME280;7486;51.010;10.366;2023-03-19T07:19:03;98111.59;;;7.14;75.41
14790;BME280;7486;51.010;10.366;2023-03-19T07:21:49;98064.19;;;6.79;75.64
14790;BME280;7486;51.010;10.366;2023-03-19T07:24:34;98124.00;;;7.20;75.39
14790;BME280;7486;51.010;10.366;2023-03-19T07:27:19;98125.06;;;7.26;75.38
14790;BME280;7486;51.010;10.366;2023-03-19T07:30:05;98119.19;;;7.45;74.81
14790;BME280;7486;51.010;10.366;2023-03-19T07:32:51;98121.56;;;7.61;74.22
14790;BME280;7486;51.010;10.366;2023-03-19T07:35:36;98123.31;;;7.76;73.53
14790;BME280;7486;51.010;10.366;2023-03-19T07:38:22;98133.38;;;7.87;72.60
14790;BME280;7486;51.010;10.366;2023-03-19T07:41:07;98132.22;;;7.96;72.60
14790;BME280;7486;51.010;10.366;2023-03-19T07:43:52;98132.06;;;8.04;71.58
14790;BME280;7486;51.010;10.366;2023-03-19T07:46:37;98133.50;;;8.06;71.27
14790;BME280;7486;51.010;10.366;2023-03-19T07:49:23;98130.69;;;8.08;70.78
14790;BME280;7486;51.010;10.366;2023-03-19T07:52:08;98136.25;;;8.19;70.82
14790;BME280;7486;51.010;10.366;2023-03-19T07:54:54;98073.31;;;7.89;70.42
14790;BME280;7486;51.010;10.366;2023-03-19T07:57:39;98146.75;;;8.41;70.30
14790;BME280;7486;51.010;10.366;2023-03-19T08:00:25;98132.59;;;8.48;70.57
14790;BME280;7486;51.010;10.366;2023-03-19T08:03:10;98134.63;;;8.53;69.73
14790;BME280;7486;51.010;10.366;2023-03-19T08:05:58;98138.09;;;8.53;69.92
14790;BME280;7486;51.010;10.366;2023-03-19T08:08:43;98090.44;;;8.27;70.05
14790;BME280;7486;51.010;10.366;2023-03-19T08:11:29;98137.56;;;8.71;70.66
14790;BME280;7486;51.010;10.366;2023-03-19T08:14:14;98143.03;;;8.63;71.00
14790;BME280;7486;51.010;10.366;2023-03-19T08:17:00;98143.03;;;8.63;69.71
14790;BME280;7486;51.010;10.366;2023-03-19T08:19:45;98147.00;;;8.87;69.45
14790;BME280;7486;51.010;10.366;2023-03-19T08:22:31;98146.66;;;9.03;71.49
14790;BME280;7486;51.010;10.366;2023-03-19T08:25:17;98145.66;;;9.04;73.20
14790;BME280;7486;51.010;10.366;2023-03-19T08:28:02;98099.56;;;8.59;72.20
14790;BME280;7486;51.010;10.366;2023-03-19T08:30:47;98147.78;;;8.81;72.27
14790;BME280;7486;51.010;10.366;2023-03-19T08:33:32;98153.53;;;8.97;72.33
14790;BME280;7486;51.010;10.366;2023-03-19T08:36:18;98154.22;;;9.19;70.46
14790;BME280;7486;51.010;10.366;2023-03-19T08:39:03;98153.72;;;9.43;69.34
14790;BME280;7486;51.010;10.366;2023-03-19T08:41:48;98142.75;;;9.53;69.58
14790;BME280;7486;51.010;10.366;2023-03-19T08:44:34;98151.34;;;9.75;68.23
14790;BME280;7486;51.010;10.366;2023-03-19T08:47:19;98105.66;;;9.20;67.82
14790;BME280;7486;51.010;10.366;2023-03-19T08:50:06;98155.38;;;9.64;67.45
14790;BME280;7486;51.010;10.366;2023-03-19T08:52:51;98156.63;;;10.07;66.91
14790;BME280;7486;51.010;10.366;2023-03-19T08:55:37;98161.09;;;10.40;66.13
14790;BME280;7486;51.010;10.366;2023-03-19T08:58:23;98161.31;;;10.51;63.75
14790;BME280;7486;51.010;10.366;2023-03-19T09:01:11;98154.75;;;10.60;61.74
14790;BME280;7486;51.010;10.366;2023-03-19T09:03:57;98164.16;;;10.37;60.70
14790;BME280;7486;51.010;10.366;2023-03-19T09:06:43;98165.38;;;10.34;60.28
14790;BME280;7486;51.010;10.366;2023-03-19T09:09:28;98160.66;;;10.43;60.40
14790;BME280;7486;51.010;10.366;2023-03-19T09:12:15;98164.72;;;10.45;59.75
14790;BME280;7486;51.010;10.366;2023-03-19T09:15:00;98166.38;;;10.46;59.20
14790;BME280;7486;51.010;10.366;2023-03-19T09:17:46;98164.72;;;10.71;58.80
14790;BME280;7486;51.010;10.366;2023-03-19T09:20:31;98166.34;;;10.72;58.74
14790;BME280;7486;51.010;10.366;2023-03-19T09:23:17;98170.13;;;10.96;58.79
14790;BME280;7486;51.010;10.366;2023-03-19T09:26:02;98177.03;;;11.04;58.79
14790;BME280;7486;51.010;10.366;2023-03-19T09:28:48;98169.44;;;11.14;58.54
14790;BME280;7486;51.010;10.366;2023-03-19T09:31:33;98178.00;;;11.22;58.08
14790;BME280;7486;51.010;10.366;2023-03-19T09:34:19;98174.66;;;11.40;57.82
14790;BME280;7486;51.010;10.366;2023-03-19T09:37:04;98175.00;;;11.50;58.73
14790;BME280;7486;51.010;10.366;2023-03-19T09:39:49;98174.94;;;11.63;58.51
14790;BME280;7486;51.010;10.366;2023-03-19T09:45:36;98178.81;;;11.54;57.17
14790;BME280;7486;51.010;10.366;2023-03-19T09:48:34;98188.94;;;11.33;58.41
14790;BME280;7486;51.010;10.366;2023-03-19T09:51:40;98192.75;;;11.50;58.48
14790;BME280;7486;51.010;10.366;2023-03-19T09:54:48;98187.97;;;11.20;57.18
14790;BME280;7486;51.010;10.366;2023-03-19T09:57:35;98181.63;;;11.28;57.47
14790;BME280;7486;51.010;10.366;2023-03-19T10:12:25;98185.16;;;12.16;56.49
14790;BME280;7486;51.010;10.366;2023-03-19T10:18:11;98183.13;;;12.18;55.33
14790;BME280;7486;51.010;10.366;2023-03-19T10:21:06;98169.22;;;12.16;56.49
14790;BME280;7486;51.010;10.366;2023-03-19T10:23:54;98181.38;;;12.30;56.01
14790;BME280;7486;51.010;10.366;2023-03-19T10:26:42;98184.66;;;12.50;56.22
14790;BME280;7486;51.010;10.366;2023-03-19T10:29:30;98180.38;;;12.49;55.25
14790;BME280;7486;51.010;10.366;2023-03-19T10:32:42;98188.25;;;12.62;54.71
14790;BME280;7486;51.010;10.366;2023-03-19T10:35:38;98181.31;;;12.61;54.38
14790;BME280;7486;51.010;10.366;2023-03-19T10:38:26;98178.38;;;12.69;55.03
14790;BME280;7486;51.010;10.366;2023-03-19T10:41:43;98172.34;;;12.81;55.47
14790;BME280;7486;51.010;10.366;2023-03-19T10:44:45;98172.91;;;12.83;54.00
14790;BME280;7486;51.010;10.366;2023-03-19T10:47:37;98174.59;;;12.59;53.91
14790;BME280;7486;51.010;10.366;2023-03-19T10:50:29;98128.56;;;12.40;54.76
14790;BME280;7486;51.010;10.366;2023-03-19T10:53:21;98174.91;;;12.69;55.53
14790;BME280;7486;51.010;10.366;2023-03-19T10:56:23;98156.38;;;12.62;54.22
14790;BME280;7486;51.010;10.366;2023-03-19T10:59:25;98174.84;;;12.51;53.74
14790;BME280;7486;51.010;10.366;2023-03-19T11:02:21;98175.34;;;12.66;56.28
14790;BME280;7486;51.010;10.366;2023-03-19T11:05:22;98187.22;;;12.63;56.06
14790;BME280;7486;51.010;10.366;2023-03-19T11:08:18;98176.28;;;12.71;54.91
14790;BME280;7486;51.010;10.366;2023-03-19T11:11:33;98131.00;;;12.66;55.40
14790;BME280;7486;51.010;10.366;2023-03-19T11:14:30;98187.97;;;12.89;55.51
14790;BME280;7486;51.010;10.366;2023-03-19T11:23:14;98177.69;;;12.31;56.67
14790;BME280;7486;51.010;10.366;2023-03-19T11:26:00;98155.75;;;12.60;57.49
14790;BME280;7486;51.010;10.366;2023-03-19T11:28:49;98177.72;;;12.92;55.27
14790;BME280;7486;51.010;10.366;2023-03-19T11:31:40;98174.88;;;13.05;54.79
14790;BME280;7486;51.010;10.366;2023-03-19T11:34:49;98174.59;;;13.32;54.63
14790;BME280;7486;51.010;10.366;2023-03-19T11:37:53;98171.13;;;13.13;53.06
14790;BME280;7486;51.010;10.366;2023-03-19T11:40:43;98163.56;;;13.28;53.95
14790;BME280;7486;51.010;10.366;2023-03-19T11:49:26;98174.91;;;13.53;53.77
14790;BME280;7486;51.010;10.366;2023-03-19T11:55:30;98169.91;;;13.45;53.50
14790;BME280;7486;51.010;10.366;2023-03-19T12:05:02;98158.06;;;13.11;54.14
14790;BME280;7486;51.010;10.366;2023-03-19T12:08:06;98068.22;;;12.47;55.73
14790;BME280;7486;51.010;10.366;2023-03-19T12:14:24;98148.44;;;13.58;53.88
14790;BME280;7486;51.010;10.366;2023-03-19T12:26:20;98140.94;;;14.43;52.32
14790;BME280;7486;51.010;10.366;2023-03-19T12:29:28;98137.13;;;14.51;52.06
14790;BME280;7486;51.010;10.366;2023-03-19T12:35:13;98138.59;;;14.35;51.34
14790;BME280;7486;51.010;10.366;2023-03-19T12:38:12;98127.84;;;14.30;51.66
14790;BME280;7486;51.010;10.366;2023-03-19T12:41:08;98135.47;;;14.27;50.91
14790;BME280;7486;51.010;10.366;2023-03-19T12:43:59;98129.44;;;14.08;53.05
14790;BME280;7486;51.010;10.366;2023-03-19T12:47:06;98126.19;;;13.83;53.36
14790;BME280;7486;51.010;10.366;2023-03-19T12:50:04;98124.81;;;14.03;52.55
14790;BME280;7486;51.010;10.366;2023-03-19T12:52:54;98117.63;;;14.15;52.63
14790;BME280;7486;51.010;10.366;2023-03-19T12:55:48;98118.44;;;14.39;52.22
14790;BME280;7486;51.010;10.366;2023-03-19T12:58:46;98094.13;;;14.47;52.59
14790;BME280;7486;51.010;10.366;2023-03-19T13:01:46;98102.00;;;14.65;50.10
14790;BME280;7486;51.010;10.366;2023-03-19T13:04:37;98112.75;;;14.59;50.06
14790;BME280;7486;51.010;10.366;2023-03-19T13:10:31;98051.50;;;14.47;49.25
14790;BME280;7486;51.010;10.366;2023-03-19T13:13:35;98113.41;;;14.89;49.76
14790;BME280;7486;51.010;10.366;2023-03-19T13:16:42;98105.75;;;14.93;48.97
14790;BME280;7486;51.010;10.366;2023-03-19T13:19:42;98086.00;;;14.65;49.01
14790;BME280;7486;51.010;10.366;2023-03-19T13:22:33;98106.38;;;14.71;49.53
14790;BME280;7486;51.010;10.366;2023-03-19T13:25:24;98065.22;;;14.79;50.46
14790;BME280;7486;51.010;10.366;2023-03-19T13:28:19;98092.00;;;15.12;49.25
14790;BME280;7486;51.010;10.366;2023-03-19T13:31:17;98093.69;;;15.18;49.29
14790;BME280;7486;51.010;10.366;2023-03-19T13:34:06;98095.06;;;15.33;49.05
14790;BME280;7486;51.010;10.366;2023-03-19T13:37:28;98081.38;;;15.29;47.97
14790;BME280;7486;51.010;10.366;2023-03-19T13:40:40;98081.00;;;15.09;48.82
14790;BME280;7486;51.010;10.366;2023-03-19T13:49:21;98083.34;;;14.54;51.31
14790;BME280;7486;51.010;10.366;2023-03-19T14:00:57;98073.97;;;14.51;50.57
14790;BME280;7486;51.010;10.366;2023-03-19T14:04:01;98077.56;;;14.45;50.02
14790;BME280;7486;51.010;10.366;2023-03-19T14:06:51;98059.13;;;14.32;52.09
14790;BME280;7486;51.010;10.366;2023-03-19T14:10:02;98095.97;;;14.12;51.77
14790;BME280;7486;51.010;10.366;2023-03-19T14:12:48;98032.03;;;12.83;55.19
14790;BME280;7486;51.010;10.366;2023-03-19T14:15:34;98098.34;;;12.59;56.33
14790;BME280;7486;51.010;10.366;2023-03-19T14:18:24;98091.13;;;11.49;62.99
14790;BME280;7486;51.010;10.366;2023-03-19T14:21:30;98087.81;;;11.29;63.30
14790;BME280;7486;51.010;10.366;2023-03-19T14:24:36;98102.66;;;11.37;66.38
14790;BME280;7486;51.010;10.366;2023-03-19T14:27:56;98103.19;;;11.14;65.26
14790;BME280;7486;51.010;10.366;2023-03-19T14:30:45;98122.22;;;10.98;66.98
14790;BME280;7486;51.010;10.366;2023-03-19T14:33:41;98144.38;;;11.10;67.29
14790;BME280;7486;51.010;10.366;2023-03-19T14:36:29;98170.56;;;10.87;68.35
14790;BME280;7486;51.010;10.366;2023-03-19T14:39:29;98152.16;;;10.08;70.04
14790;BME280;7486;51.010;10.366;2023-03-19T14:42:25;98138.28;;;9.73;72.51
14790;BME280;7486;51.010;10.366;2023-03-19T14:49:13;98172.06;;;9.58;74.57
14790;BME280;7486;51.010;10.366;2023-03-19T14:54:49;98165.13;;;9.50;73.37
14790;BME280;7486;51.010;10.366;2023-03-19T14:57:35;98160.50;;;9.65;72.76
14790;BME280;7486;51.010;10.366;2023-03-19T15:00:20;98155.88;;;9.20;74.42
14790;BME280;7486;51.010;10.366;2023-03-19T15:03:18;98152.34;;;9.00;76.61
14790;BME280;7486;51.010;10.366;2023-03-19T15:06:06;98143.13;;;8.83;77.05
14790;BME280;7486;51.010;10.366;2023-03-19T15:08:51;98136.94;;;8.62;77.80
14790;BME280;7486;51.010;10.366;2023-03-19T15:11:49;98140.41;;;8.63;78.40
14790;BME280;7486;51.010;10.366;2023-03-19T15:15:02;98138.81;;;8.75;78.70
14790;BME280;7486;51.010;10.366;2023-03-19T15:17:57;98089.59;;;8.61;78.38
14790;BME280;7486;51.010;10.366;2023-03-19T15:20:52;98143.47;;;9.20;76.95
14790;BME280;7486;51.010;10.366;2023-03-19T15:23:39;98140.31;;;9.38;76.52
14790;BME280;7486;51.010;10.366;2023-03-19T15:26:34;98139.09;;;9.60;75.35
14790;BME280;7486;51.010;10.366;2023-03-19T15:29:33;98141.56;;;9.95;74.91
14790;BME280;7486;51.010;10.366;2023-03-19T15:32:36;98143.19;;;10.22;73.08
14790;BME280;7486;51.010;10.366;2023-03-19T15:35:41;98135.03;;;10.37;70.76
14790;BME280;7486;51.010;10.366;2023-03-19T15:38:29;98144.19;;;10.41;73.24
14790;BME280;7486;51.010;10.366;2023-03-19T15:41:18;98102.22;;;10.38;73.16
14790;BME280;7486;51.010;10.366;2023-03-19T15:44:07;98140.84;;;10.85;74.85
14790;BME280;7486;51.010;10.366;2023-03-19T15:46:56;98142.81;;;11.02;68.95
14790;BME280;7486;51.010;10.366;2023-03-19T15:49:47;98137.38;;;11.29;67.21
14790;BME280;7486;51.010;10.366;2023-03-19T15:52:37;98133.63;;;11.43;69.70
14790;BME280;7486;51.010;10.366;2023-03-19T15:55:25;98134.63;;;11.42;69.87
14790;BME280;7486;51.010;10.366;2023-03-19T15:58:15;98140.59;;;11.68;68.21
14790;BME280;7486;51.010;10.366;2023-03-19T16:01:05;98140.88;;;11.92;68.30
14790;BME280;7486;51.010;10.366;2023-03-19T16:04:01;98139.75;;;12.24;71.00
14790;BME280;7486;51.010;10.366;2023-03-19T16:06:48;98135.75;;;12.15;68.95
14790;BME280;7486;51.010;10.366;2023-03-19T16:09:34;98142.28;;;12.19;67.68
14790;BME280;7486;51.010;10.366;2023-03-19T16:12:38;98146.56;;;12.38;67.01
14790;BME280;7486;51.010;10.366;2023-03-19T16:15:44;98152.47;;;12.40;68.46
14790;BME280;7486;51.010;10.366;2023-03-19T16:19:00;98143.28;;;12.18;68.44
14790;BME280;7486;51.010;10.366;2023-03-19T16:21:47;98142.13;;;12.32;67.80
14790;BME280;7486;51.010;10.366;2023-03-19T16:24:34;98145.94;;;12.18;68.20
14790;BME280;7486;51.010;10.366;2023-03-19T16:27:37;98142.28;;;12.19;67.32
14790;BME280;7486;51.010;10.366;2023-03-19T16:30:26;98138.53;;;12.02;68.38
14790;BME280;7486;51.010;10.366;2023-03-19T16:33:13;98109.50;;;11.57;68.08
14790;BME280;7486;51.010;10.366;2023-03-19T16:35:58;98154.44;;;11.77;68.01
14790;BME280;7486;51.010;10.366;2023-03-19T16:44:52;98131.53;;;11.83;66.27